createdAt,value
2023-02-06T00:00:25.757Z,12.67
2023-02-06T00:05:24.092Z,13.14
2023-02-06T00:10:23.210Z,13.14
2023-02-06T00:15:23.519Z,13.33
2023-02-06T00:20:21.664Z,25.60
2023-02-06T00:25:20.859Z,27.67
2023-02-06T00:30:20.059Z,28.07
2023-02-06T00:35:19.281Z,28.19
2023-02-06T00:40:19.566Z,28.00
2023-02-06T00:45:18.724Z,27.75
2023-02-06T00:50:16.914Z,27.37
2023-02-06T00:55:17.126Z,27.03
2023-02-06T01:00:14.281Z,26.72
2023-02-06T01:05:15.455Z,26.43
2023-02-06T01:10:14.615Z,26.10
2023-02-06T01:15:12.774Z,25.79
2023-02-06T01:20:11.973Z,25.60
2023-02-06T01:25:12.130Z,25.30
2023-02-06T01:30:09.306Z,25.03
2023-02-06T01:35:09.503Z,24.81
2023-02-06T01:40:09.682Z,24.55
2023-02-06T01:45:08.860Z,24.37
2023-02-06T01:50:09.007Z,24.13
2023-02-06T01:55:08.159Z,23.91
2023-02-06T02:00:07.328Z,23.72
2023-02-06T02:05:04.500Z,23.51
2023-02-06T02:10:03.705Z,23.32
2023-02-06T02:15:02.897Z,23.15
2023-02-06T02:20:02.076Z,22.94
2023-02-06T02:25:02.279Z,22.76
2023-02-06T02:30:01.457Z,22.58
2023-02-06T02:34:59.640Z,22.42
2023-02-06T02:39:58.823Z,22.25
2023-02-06T02:45:01.993Z,22.09
2023-02-06T02:49:57.164Z,21.98
2023-02-06T02:54:56.384Z,21.83
2023-02-06T02:59:55.587Z,21.71
2023-02-06T03:04:53.806Z,21.59
2023-02-06T03:09:55.012Z,21.46
2023-02-06T03:14:52.208Z,21.35
2023-02-06T03:19:53.422Z,21.25
2023-02-06T03:24:51.590Z,21.17
2023-02-06T03:29:50.787Z,21.06
2023-02-06T03:34:49.999Z,20.99
2023-02-06T03:39:49.166Z,20.91
2023-02-06T03:44:49.358Z,20.82
2023-02-06T03:49:47.561Z,20.76
2023-02-06T03:54:47.742Z,20.69
2023-02-06T03:59:46.942Z,20.64
2023-02-06T04:04:47.097Z,20.54
2023-02-06T04:09:44.282Z,20.50
2023-02-06T04:14:45.459Z,20.41
2023-02-06T04:19:43.608Z,20.35
2023-02-06T04:24:41.766Z,20.31
2023-02-06T04:29:40.013Z,20.24
2023-02-06T04:34:41.325Z,20.21
2023-02-06T04:39:39.654Z,20.14
2023-02-06T04:44:39.944Z,20.08
2023-02-06T04:49:38.249Z,20.05
2023-02-06T04:54:37.564Z,20.01
2023-02-06T04:59:36.882Z,19.96
2023-02-06T05:04:36.182Z,19.88
2023-02-06T05:09:37.497Z,19.86
2023-02-06T05:14:35.797Z,19.81
2023-02-06T05:19:35.136Z,19.78
2023-02-06T05:24:33.447Z,19.74
2023-02-06T05:29:33.760Z,19.66
2023-02-06T05:34:32.095Z,19.65
2023-02-06T05:39:31.406Z,19.62
2023-02-06T05:44:30.740Z,19.55
2023-02-06T05:49:30.046Z,19.54
2023-02-06T05:54:29.412Z,19.48
2023-02-06T05:59:28.518Z,19.44
2023-02-06T06:04:27.873Z,19.43
2023-02-06T06:09:26.976Z,19.37
2023-02-06T06:14:26.338Z,19.33
2023-02-06T06:19:25.464Z,19.31
2023-02-06T06:24:24.807Z,19.29
2023-02-06T06:29:23.946Z,19.25
2023-02-06T06:34:24.263Z,19.19
2023-02-06T06:39:24.593Z,19.18
2023-02-06T06:44:21.919Z,19.14
2023-02-06T06:49:21.042Z,19.13
2023-02-06T06:54:20.177Z,19.08
2023-02-06T06:59:19.319Z,19.06
2023-02-06T07:04:18.665Z,19.00
2023-02-06T07:09:17.783Z,18.99
2023-02-06T07:14:17.112Z,18.94
2023-02-06T07:19:16.250Z,18.91
2023-02-06T07:24:15.605Z,18.90
2023-02-06T07:29:16.722Z,18.87
2023-02-06T07:34:14.045Z,18.84
2023-02-06T07:39:14.358Z,18.80
2023-02-06T07:44:13.677Z,18.76
2023-02-06T07:49:11.970Z,18.75
2023-02-06T07:54:11.327Z,18.70
2023-02-06T07:59:10.434Z,18.72
2023-02-06T08:04:10.816Z,18.69
2023-02-06T08:09:08.991Z,18.65
2023-02-06T08:14:10.163Z,18.63
2023-02-06T08:19:08.322Z,19.98
2023-02-06T08:24:06.455Z,23.01
2023-02-06T08:29:05.761Z,24.31
2023-02-06T08:34:05.061Z,26.06
2023-02-06T08:39:06.345Z,28.54
2023-02-06T08:44:03.606Z,28.86
2023-02-06T08:49:04.908Z,29.04
2023-02-06T08:54:03.194Z,29.74
2023-02-06T08:59:01.474Z,30.11
2023-02-06T09:04:00.771Z,30.45
2023-02-06T09:09:02.082Z,30.73
2023-02-06T09:13:59.401Z,30.84
2023-02-06T09:18:59.732Z,31.14
2023-02-06T09:23:59.029Z,31.19
2023-02-06T09:29:00.337Z,31.38
2023-02-06T09:33:56.594Z,30.80
2023-02-06T09:38:55.905Z,29.76
2023-02-06T09:43:56.198Z,29.26
2023-02-06T09:48:56.520Z,28.62
2023-02-06T09:53:54.856Z,28.02
2023-02-06T09:58:53.159Z,27.59
2023-02-06T10:03:52.553Z,26.95
2023-02-06T10:08:53.696Z,26.39
2023-02-06T10:13:50.994Z,25.77
2023-02-06T10:18:50.295Z,25.30
2023-02-06T10:23:50.594Z,24.90
2023-02-06T10:28:48.900Z,24.40
2023-02-06T10:33:48.192Z,24.02
2023-02-06T10:38:45.535Z,23.66
2023-02-06T10:43:46.877Z,23.39
2023-02-06T10:48:46.247Z,23.09
2023-02-06T10:53:46.370Z,22.80
2023-02-06T10:58:44.691Z,22.49
2023-02-06T11:03:44.030Z,22.22
2023-02-06T11:08:44.142Z,21.99
2023-02-06T11:13:42.467Z,21.74
2023-02-06T11:18:43.759Z,21.56
2023-02-06T11:23:43.066Z,21.40
2023-02-06T11:28:41.385Z,21.28
2023-02-06T11:33:39.708Z,21.13
2023-02-06T11:38:39.028Z,20.95
2023-02-06T11:43:39.169Z,20.79
2023-02-06T11:48:38.406Z,20.64
2023-02-06T11:53:36.475Z,20.52
2023-02-06T11:58:36.858Z,20.39
2023-02-06T12:03:35.010Z,20.29
2023-02-06T12:08:35.217Z,20.18
2023-02-06T12:13:34.369Z,20.10
2023-02-06T12:18:32.524Z,19.99
2023-02-06T12:23:32.663Z,19.92
2023-02-06T12:28:32.996Z,19.83
2023-02-06T12:33:31.324Z,19.77
2023-02-06T12:38:30.651Z,19.68
2023-02-06T12:43:28.985Z,19.62
2023-02-06T12:48:28.331Z,19.55
2023-02-06T12:53:27.655Z,19.50
2023-02-06T12:58:26.996Z,19.50
2023-02-06T13:03:26.146Z,19.50
2023-02-06T13:08:26.672Z,19.51
2023-02-06T13:13:24.554Z,19.61
2023-02-06T13:18:23.693Z,19.63
2023-02-06T13:23:23.061Z,19.63
2023-02-06T13:28:22.377Z,19.63
2023-02-06T13:33:22.608Z,19.62
2023-02-06T13:38:20.954Z,19.59
2023-02-06T13:43:21.116Z,19.55
2023-02-06T13:48:20.360Z,19.47
2023-02-06T13:53:18.481Z,19.41
2023-02-06T13:58:17.822Z,19.36
2023-02-06T14:03:17.946Z,19.29
2023-02-06T14:08:16.293Z,19.21
2023-02-06T14:13:15.451Z,19.13
2023-02-06T14:18:16.639Z,19.08
2023-02-06T14:23:14.813Z,19.04
2023-02-06T14:28:13.052Z,19.02
2023-02-06T14:33:12.219Z,19.06
2023-02-06T14:38:12.367Z,19.08
2023-02-06T14:43:10.495Z,19.10
2023-02-06T14:48:11.901Z,19.10
2023-02-06T14:53:08.995Z,19.08
2023-02-06T14:58:09.312Z,19.06
2023-02-06T15:03:07.612Z,19.00
2023-02-06T15:08:06.953Z,18.94
2023-02-06T15:13:07.204Z,18.90
2023-02-06T15:18:05.520Z,18.81
2023-02-06T15:23:17.102Z,18.76
2023-02-06T15:28:04.055Z,18.69
2023-02-06T15:33:04.173Z,18.66
2023-02-06T15:38:02.530Z,18.66
2023-02-06T15:43:01.659Z,18.67
2023-02-06T15:48:02.830Z,18.66
2023-02-06T15:53:03.256Z,18.67
2023-02-06T15:57:59.442Z,18.63
2023-02-06T16:03:02.698Z,18.60
2023-02-06T16:07:58.839Z,18.57
2023-02-06T16:12:56.946Z,18.51
2023-02-06T16:17:57.294Z,18.45
2023-02-06T16:22:54.703Z,18.39
2023-02-06T16:27:54.991Z,18.35
2023-02-06T16:32:55.382Z,18.37
2023-02-06T16:37:53.445Z,18.48
2023-02-06T16:42:53.745Z,18.58
2023-02-06T16:47:52.196Z,18.66
2023-02-06T16:52:51.655Z,18.69
2023-02-06T16:57:51.676Z,18.67
2023-02-06T17:02:49.908Z,18.66
2023-02-06T17:07:49.047Z,18.62
2023-02-06T17:12:48.236Z,18.57
2023-02-06T17:17:48.335Z,18.51
2023-02-06T17:22:46.644Z,18.44
2023-02-06T17:27:45.965Z,18.36
2023-02-06T17:32:44.335Z,18.32
2023-02-06T17:37:44.745Z,18.23
2023-02-06T17:42:43.003Z,18.15
2023-02-06T17:47:42.965Z,18.11
2023-02-06T17:52:42.585Z,18.67
2023-02-06T17:57:41.566Z,19.39
2023-02-06T18:02:41.974Z,19.96
2023-02-06T18:07:41.028Z,20.23
2023-02-06T18:12:39.683Z,20.08
2023-02-06T18:17:39.703Z,20.02
2023-02-06T18:22:39.842Z,20.01
2023-02-06T18:27:37.058Z,19.86
2023-02-06T18:32:35.284Z,19.63
2023-02-06T18:37:36.723Z,19.50
2023-02-06T18:42:34.954Z,19.40
2023-02-06T18:47:34.274Z,19.22
2023-02-06T18:52:34.378Z,19.02
2023-02-06T18:57:34.496Z,18.88
2023-02-06T19:02:33.664Z,18.73
2023-02-06T19:07:35.253Z,19.54
2023-02-06T19:12:31.842Z,25.42
2023-02-06T19:17:30.736Z,28.56
2023-02-06T19:22:30.069Z,28.78
2023-02-06T19:27:27.165Z,29.19
2023-02-06T19:32:28.163Z,29.26
2023-02-06T19:37:26.708Z,30.75
2023-02-06T19:42:25.863Z,31.28
2023-02-06T19:47:25.153Z,31.89
2023-02-06T19:52:24.285Z,32.08
2023-02-06T19:57:23.537Z,32.35
2023-02-06T20:02:22.733Z,32.11
2023-02-06T20:07:22.858Z,32.35
2023-02-06T20:12:22.200Z,32.59
2023-02-06T20:17:20.379Z,33.04
2023-02-06T20:22:20.530Z,33.44
2023-02-06T20:27:19.485Z,33.56
2023-02-06T20:32:18.024Z,33.68
2023-02-06T20:37:17.167Z,33.93
2023-02-06T20:42:17.396Z,34.03
2023-02-06T20:47:19.257Z,34.34
2023-02-06T20:52:14.695Z,34.50
2023-02-06T20:57:18.045Z,34.42
2023-02-06T21:02:13.102Z,34.13
2023-02-06T21:07:12.428Z,33.86
2023-02-06T21:12:12.349Z,33.81
2023-02-06T21:17:10.734Z,33.91
2023-02-06T21:22:09.900Z,34.03
2023-02-06T21:27:10.031Z,33.88
2023-02-06T21:32:13.570Z,33.95
2023-02-06T21:37:07.499Z,34.02
2023-02-06T21:42:06.843Z,34.15
2023-02-06T21:47:06.026Z,34.08
2023-02-06T21:52:05.211Z,33.73
2023-02-06T21:57:05.474Z,33.47
2023-02-06T22:02:03.664Z,33.39
2023-02-06T22:07:02.827Z,34.15
2023-02-06T22:12:02.252Z,34.50
2023-02-06T22:17:01.409Z,34.75
2023-02-06T22:22:00.614Z,34.75
2023-02-06T22:26:59.749Z,34.56
2023-02-06T22:31:59.142Z,34.47
2023-02-06T22:36:58.179Z,34.15
2023-02-06T22:41:57.335Z,34.06
2023-02-06T22:46:56.789Z,34.05
2023-02-06T22:51:57.003Z,34.30
2023-02-06T22:56:56.159Z,34.37
2023-02-06T23:01:55.309Z,34.28
2023-02-06T23:06:54.684Z,34.44
2023-02-06T23:11:52.824Z,34.21
2023-02-06T23:16:50.952Z,34.03
2023-02-06T23:21:51.347Z,33.81
2023-02-06T23:26:50.522Z,33.71
2023-02-06T23:31:49.805Z,33.73
2023-02-06T23:36:49.228Z,33.98
2023-02-06T23:41:48.944Z,33.95
2023-02-06T23:46:48.418Z,34.02
2023-02-06T23:51:46.670Z,33.73
2023-02-06T23:56:45.972Z,33.69
